sensor_id;sensor_type;location;lat;lon;timestamp;P1;durP1;ratioP1;P2;durP2;ratioP2
13981;SDS011;7065;50.880;5.502;2024-02-26T00:00:37;2.40;;;1.40;;
13981;SDS011;7065;50.880;5.502;2024-02-26T00:03:03;1.90;;;1.70;;
13981;SDS011;7065;50.880;5.502;2024-02-26T00:05:30;1.83;;;1.60;;
13981;SDS011;7065;50.880;5.502;2024-02-26T00:07:56;2.17;;;1.48;;
13981;SDS011;7065;50.880;5.502;2024-02-26T00:10:22;2.30;;;1.35;;
13981;SDS011;7065;50.880;5.502;2024-02-26T00:12:48;1.20;;;1.10;;
13981;SDS011;7065;50.880;5.502;2024-02-26T00:15:13;2.00;;;1.67;;
13981;SDS011;7065;50.880;5.502;2024-02-26T00:17:39;2.70;;;1.73;;
13981;SDS011;7065;50.880;5.502;2024-02-26T00:20:05;1.38;;;1.27;;
13981;SDS011;7065;50.880;5.502;2024-02-26T00:22:34;1.83;;;1.45;;
13981;SDS011;7065;50.880;5.502;2024-02-26T00:25:00;3.03;;;1.48;;
13981;SDS011;7065;50.880;5.502;2024-02-26T00:27:26;1.70;;;1.60;;
13981;SDS011;7065;50.880;5.502;2024-02-26T00:29:52;2.42;;;1.70;;
13981;SDS011;7065;50.880;5.502;2024-02-26T00:32:17;2.22;;;1.77;;
13981;SDS011;7065;50.880;5.502;2024-02-26T00:34:43;2.03;;;1.60;;
13981;SDS011;7065;50.880;5.502;2024-02-26T00:37:09;2.25;;;1.90;;
13981;SDS011;7065;50.880;5.502;2024-02-26T00:39:35;2.53;;;1.80;;
13981;SDS011;7065;50.880;5.502;2024-02-26T00:42:00;2.70;;;1.75;;
13981;SDS011;7065;50.880;5.502;2024-02-26T00:44:26;2.22;;;1.70;;
13981;SDS011;7065;50.880;5.502;2024-02-26T00:46:52;3.20;;;1.67;;
13981;SDS011;7065;50.880;5.502;2024-02-26T00:49:18;1.73;;;1.50;;
13981;SDS011;7065;50.880;5.502;2024-02-26T00:51:44;1.92;;;1.73;;
13981;SDS011;7065;50.880;5.502;2024-02-26T00:54:09;2.30;;;2.10;;
13981;SDS011;7065;50.880;5.502;2024-02-26T00:56:35;2.17;;;1.70;;
13981;SDS011;7065;50.880;5.502;2024-02-26T00:59:00;1.92;;;1.55;;
13981;SDS011;7065;50.880;5.502;2024-02-26T01:01:26;2.08;;;1.85;;
13981;SDS011;7065;50.880;5.502;2024-02-26T01:03:52;2.63;;;1.58;;
13981;SDS011;7065;50.880;5.502;2024-02-26T01:06:17;1.88;;;1.67;;
13981;SDS011;7065;50.880;5.502;2024-02-26T01:08:43;3.05;;;1.98;;
13981;SDS011;7065;50.880;5.502;2024-02-26T01:11:09;1.58;;;1.48;;
13981;SDS011;7065;50.880;5.502;2024-02-26T01:13:35;1.98;;;1.75;;
13981;SDS011;7065;50.880;5.502;2024-02-26T01:16:00;3.72;;;2.00;;
13981;SDS011;7065;50.880;5.502;2024-02-26T01:18:26;2.00;;;1.55;;
13981;SDS011;7065;50.880;5.502;2024-02-26T01:20:52;1.65;;;1.55;;
13981;SDS011;7065;50.880;5.502;2024-02-26T01:23:19;1.85;;;1.67;;
13981;SDS011;7065;50.880;5.502;2024-02-26T01:25:46;3.20;;;1.80;;
13981;SDS011;7065;50.880;5.502;2024-02-26T01:28:12;2.10;;;1.50;;
13981;SDS011;7065;50.880;5.502;2024-02-26T01:30:37;1.88;;;1.70;;
13981;SDS011;7065;50.880;5.502;2024-02-26T01:33:03;2.47;;;1.73;;
13981;SDS011;7065;50.880;5.502;2024-02-26T01:35:29;3.53;;;1.90;;
13981;SDS011;7065;50.880;5.502;2024-02-26T01:37:55;2.13;;;1.63;;
13981;SDS011;7065;50.880;5.502;2024-02-26T01:40:21;1.88;;;1.42;;
13981;SDS011;7065;50.880;5.502;2024-02-26T01:42:46;3.25;;;1.65;;
13981;SDS011;7065;50.880;5.502;2024-02-26T01:45:16;1.98;;;1.70;;
13981;SDS011;7065;50.880;5.502;2024-02-26T01:47:51;1.65;;;1.55;;
13981;SDS011;7065;50.880;5.502;2024-02-26T01:50:18;2.22;;;1.70;;
13981;SDS011;7065;50.880;5.502;2024-02-26T01:52:45;2.90;;;1.80;;
13981;SDS011;7065;50.880;5.502;2024-02-26T01:55:12;3.65;;;1.60;;
13981;SDS011;7065;50.880;5.502;2024-02-26T01:57:42;2.88;;;1.70;;
13981;SDS011;7065;50.880;5.502;2024-02-26T02:00:10;1.92;;;1.83;;
13981;SDS011;7065;50.880;5.502;2024-02-26T02:02:36;2.33;;;1.40;;
13981;SDS011;7065;50.880;5.502;2024-02-26T02:05:04;3.00;;;1.60;;
13981;SDS011;7065;50.880;5.502;2024-02-26T02:07:31;2.90;;;1.60;;
13981;SDS011;7065;50.880;5.502;2024-02-26T02:09:57;3.65;;;1.50;;
13981;SDS011;7065;50.880;5.502;2024-02-26T02:12:23;2.25;;;1.63;;
13981;SDS011;7065;50.880;5.502;2024-02-26T02:14:49;1.60;;;1.50;;
13981;SDS011;7065;50.880;5.502;2024-02-26T02:17:15;2.03;;;1.58;;
13981;SDS011;7065;50.880;5.502;2024-02-26T02:19:41;2.00;;;1.50;;
13981;SDS011;7065;50.880;5.502;2024-02-26T02:22:06;1.70;;;1.60;;
13981;SDS011;7065;50.880;5.502;2024-02-26T02:24:32;3.67;;;1.75;;
13981;SDS011;7065;50.880;5.502;2024-02-26T02:26:57;5.22;;;1.50;;
13981;SDS011;7065;50.880;5.502;2024-02-26T02:29:23;2.15;;;1.63;;
13981;SDS011;7065;50.880;5.502;2024-02-26T02:31:49;2.97;;;1.95;;
13981;SDS011;7065;50.880;5.502;2024-02-26T02:34:15;1.92;;;1.73;;
13981;SDS011;7065;50.880;5.502;2024-02-26T02:37:14;3.58;;;1.90;;
13981;SDS011;7065;50.880;5.502;2024-02-26T02:39:33;3.45;;;1.77;;
13981;SDS011;7065;50.880;5.502;2024-02-26T02:41:58;2.95;;;2.10;;
13981;SDS011;7065;50.880;5.502;2024-02-26T02:44:25;2.55;;;1.98;;
13981;SDS011;7065;50.880;5.502;2024-02-26T02:46:51;2.65;;;2.35;;
13981;SDS011;7065;50.880;5.502;2024-02-26T02:49:18;3.95;;;2.28;;
13981;SDS011;7065;50.880;5.502;2024-02-26T02:51:44;2.70;;;1.80;;
13981;SDS011;7065;50.880;5.502;2024-02-26T02:54:09;2.97;;;2.03;;
13981;SDS011;7065;50.880;5.502;2024-02-26T02:56:35;3.72;;;2.15;;
13981;SDS011;7065;50.880;5.502;2024-02-26T02:59:01;4.88;;;2.30;;
13981;SDS011;7065;50.880;5.502;2024-02-26T03:01:27;2.97;;;2.05;;
13981;SDS011;7065;50.880;5.502;2024-02-26T03:03:53;2.78;;;2.20;;
13981;SDS011;7065;50.880;5.502;2024-02-26T03:06:19;2.58;;;2.22;;
13981;SDS011;7065;50.880;5.502;2024-02-26T03:08:46;3.92;;;2.30;;
13981;SDS011;7065;50.880;5.502;2024-02-26T03:11:14;3.25;;;2.50;;
13981;SDS011;7065;50.880;5.502;2024-02-26T03:13:40;2.40;;;2.20;;
13981;SDS011;7065;50.880;5.502;2024-02-26T03:16:06;3.08;;;2.67;;
13981;SDS011;7065;50.880;5.502;2024-02-26T03:18:32;3.03;;;2.72;;
13981;SDS011;7065;50.880;5.502;2024-02-26T03:20:58;4.50;;;3.28;;
13981;SDS011;7065;50.880;5.502;2024-02-26T03:23:23;4.00;;;2.80;;
13981;SDS011;7065;50.880;5.502;2024-02-26T03:25:49;4.63;;;3.70;;
13981;SDS011;7065;50.880;5.502;2024-02-26T03:28:15;3.35;;;3.05;;
13981;SDS011;7065;50.880;5.502;2024-02-26T03:30:41;3.63;;;3.03;;
13981;SDS011;7065;50.880;5.502;2024-02-26T03:33:06;3.60;;;3.30;;
13981;SDS011;7065;50.880;5.502;2024-02-26T03:35:32;3.85;;;3.53;;
13981;SDS011;7065;50.880;5.502;2024-02-26T03:37:58;3.70;;;3.40;;
13981;SDS011;7065;50.880;5.502;2024-02-26T03:40:23;4.78;;;3.70;;
13981;SDS011;7065;50.880;5.502;2024-02-26T03:42:49;6.25;;;3.97;;
13981;SDS011;7065;50.880;5.502;2024-02-26T03:45:15;4.28;;;3.88;;
13981;SDS011;7065;50.880;5.502;2024-02-26T03:47:41;4.68;;;3.50;;
13981;SDS011;7065;50.880;5.502;2024-02-26T03:50:07;4.78;;;3.70;;
13981;SDS011;7065;50.880;5.502;2024-02-26T03:52:33;4.00;;;3.60;;
13981;SDS011;7065;50.880;5.502;2024-02-26T03:54:59;6.00;;;3.95;;
13981;SDS011;7065;50.880;5.502;2024-02-26T03:57:25;3.58;;;3.28;;
13981;SDS011;7065;50.880;5.502;2024-02-26T03:59:50;4.10;;;3.70;;
13981;SDS011;7065;50.880;5.502;2024-02-26T04:02:16;4.00;;;3.70;;
13981;SDS011;7065;50.880;5.502;2024-02-26T04:04:45;4.47;;;4.07;;
13981;SDS011;7065;50.880;5.502;2024-02-26T04:07:12;5.15;;;4.07;;
13981;SDS011;7065;50.880;5.502;2024-02-26T04:09:38;4.60;;;4.20;;
13981;SDS011;7065;50.880;5.502;2024-02-26T04:12:04;5.60;;;5.05;;
13981;SDS011;7065;50.880;5.502;2024-02-26T04:14:30;5.63;;;5.13;;
13981;SDS011;7065;50.880;5.502;2024-02-26T04:16:56;5.57;;;5.10;;
13981;SDS011;7065;50.880;5.502;2024-02-26T04:19:21;6.60;;;5.07;;
13981;SDS011;7065;50.880;5.502;2024-02-26T04:21:47;5.78;;;5.28;;
13981;SDS011;7065;50.880;5.502;2024-02-26T04:24:13;5.55;;;4.97;;
13981;SDS011;7065;50.880;5.502;2024-02-26T04:26:38;5.30;;;4.78;;
13981;SDS011;7065;50.880;5.502;2024-02-26T04:29:04;5.13;;;4.63;;
13981;SDS011;7065;50.880;5.502;2024-02-26T04:31:30;5.90;;;5.15;;
13981;SDS011;7065;50.880;5.502;2024-02-26T04:33:57;8.00;;;5.13;;
13981;SDS011;7065;50.880;5.502;2024-02-26T04:36:23;5.78;;;5.28;;
13981;SDS011;7065;50.880;5.502;2024-02-26T04:38:50;5.20;;;4.70;;
13981;SDS011;7065;50.880;5.502;2024-02-26T04:41:16;5.63;;;5.13;;
13981;SDS011;7065;50.880;5.502;2024-02-26T04:43:42;5.63;;;5.13;;
13981;SDS011;7065;50.880;5.502;2024-02-26T04:46:08;5.43;;;4.90;;
13981;SDS011;7065;50.880;5.502;2024-02-26T04:48:34;5.78;;;5.10;;
13981;SDS011;7065;50.880;5.502;2024-02-26T04:51:00;5.00;;;4.60;;
13981;SDS011;7065;50.880;5.502;2024-02-26T04:53:27;5.30;;;4.88;;
13981;SDS011;7065;50.880;5.502;2024-02-26T04:55:52;5.05;;;4.50;;
13981;SDS011;7065;50.880;5.502;2024-02-26T04:58:18;5.72;;;5.22;;
13981;SDS011;7065;50.880;5.502;2024-02-26T05:00:44;5.90;;;5.00;;
13981;SDS011;7065;50.880;5.502;2024-02-26T05:03:09;5.50;;;5.03;;
13981;SDS011;7065;50.880;5.502;2024-02-26T05:05:40;6.18;;;5.13;;
13981;SDS011;7065;50.880;5.502;2024-02-26T05:08:06;5.95;;;5.35;;
13981;SDS011;7065;50.880;5.502;2024-02-26T05:10:32;5.75;;;5.25;;
13981;SDS011;7065;50.880;5.502;2024-02-26T05:12:58;5.75;;;5.32;;
13981;SDS011;7065;50.880;5.502;2024-02-26T05:15:24;6.30;;;5.80;;
13981;SDS011;7065;50.880;5.502;2024-02-26T05:17:50;7.63;;;6.93;;
13981;SDS011;7065;50.880;5.502;2024-02-26T05:20:15;8.27;;;7.53;;
13981;SDS011;7065;50.880;5.502;2024-02-26T05:22:41;7.97;;;7.28;;
13981;SDS011;7065;50.880;5.502;2024-02-26T05:25:08;7.97;;;7.28;;
13981;SDS011;7065;50.880;5.502;2024-02-26T05:27:34;8.07;;;7.32;;
13981;SDS011;7065;50.880;5.502;2024-02-26T05:30:00;8.10;;;7.32;;
13981;SDS011;7065;50.880;5.502;2024-02-26T05:32:25;7.70;;;7.00;;
13981;SDS011;7065;50.880;5.502;2024-02-26T05:34:51;7.90;;;7.10;;
13981;SDS011;7065;50.880;5.502;2024-02-26T05:37:17;6.85;;;6.15;;
13981;SDS011;7065;50.880;5.502;2024-02-26T05:39:42;6.40;;;5.82;;
13981;SDS011;7065;50.880;5.502;2024-02-26T05:42:08;7.05;;;6.35;;
13981;SDS011;7065;50.880;5.502;2024-02-26T05:44:34;7.22;;;6.53;;
13981;SDS011;7065;50.880;5.502;2024-02-26T05:47:00;6.63;;;5.93;;
13981;SDS011;7065;50.880;5.502;2024-02-26T05:49:25;7.60;;;6.15;;
13981;SDS011;7065;50.880;5.502;2024-02-26T05:51:51;6.95;;;6.25;;
13981;SDS011;7065;50.880;5.502;2024-02-26T05:54:17;8.77;;;7.55;;
13981;SDS011;7065;50.880;5.502;2024-02-26T05:56:42;8.30;;;6.72;;
13981;SDS011;7065;50.880;5.502;2024-02-26T05:59:08;7.75;;;7.00;;
13981;SDS011;7065;50.880;5.502;2024-02-26T06:01:34;8.32;;;7.53;;
13981;SDS011;7065;50.880;5.502;2024-02-26T06:03:59;8.90;;;7.53;;
13981;SDS011;7065;50.880;5.502;2024-02-26T06:06:25;9.77;;;8.88;;
13981;SDS011;7065;50.880;5.502;2024-02-26T06:08:51;9.35;;;8.38;;
13981;SDS011;7065;50.880;5.502;2024-02-26T06:11:17;9.07;;;8.27;;
13981;SDS011;7065;50.880;5.502;2024-02-26T06:13:43;9.70;;;8.80;;
13981;SDS011;7065;50.880;5.502;2024-02-26T06:16:08;8.40;;;7.60;;
13981;SDS011;7065;50.880;5.502;2024-02-26T06:18:34;9.20;;;8.30;;
13981;SDS011;7065;50.880;5.502;2024-02-26T06:21:00;9.20;;;8.32;;
13981;SDS011;7065;50.880;5.502;2024-02-26T06:23:26;10.00;;;8.93;;
13981;SDS011;7065;50.880;5.502;2024-02-26T06:25:56;8.60;;;7.80;;
13981;SDS011;7065;50.880;5.502;2024-02-26T06:28:21;8.98;;;8.18;;
13981;SDS011;7065;50.880;5.502;2024-02-26T06:30:47;8.35;;;7.55;;
13981;SDS011;7065;50.880;5.502;2024-02-26T06:33:13;9.40;;;8.48;;
13981;SDS011;7065;50.880;5.502;2024-02-26T06:35:39;8.82;;;8.02;;
13981;SDS011;7065;50.880;5.502;2024-02-26T06:38:04;10.05;;;8.45;;
13981;SDS011;7065;50.880;5.502;2024-02-26T06:40:30;9.68;;;8.75;;
13981;SDS011;7065;50.880;5.502;2024-02-26T06:42:56;9.88;;;8.88;;
13981;SDS011;7065;50.880;5.502;2024-02-26T06:45:22;9.98;;;9.02;;
13981;SDS011;7065;50.880;5.502;2024-02-26T06:47:48;9.52;;;8.73;;
13981;SDS011;7065;50.880;5.502;2024-02-26T06:50:13;9.73;;;8.82;;
13981;SDS011;7065;50.880;5.502;2024-02-26T06:52:39;9.48;;;8.68;;
13981;SDS011;7065;50.880;5.502;2024-02-26T06:55:05;9.50;;;8.65;;
13981;SDS011;7065;50.880;5.502;2024-02-26T06:57:33;9.73;;;8.82;;
13981;SDS011;7065;50.880;5.502;2024-02-26T06:59:58;10.63;;;9.52;;
13981;SDS011;7065;50.880;5.502;2024-02-26T07:02:24;10.98;;;9.98;;
13981;SDS011;7065;50.880;5.502;2024-02-26T07:04:50;10.80;;;9.63;;
13981;SDS011;7065;50.880;5.502;2024-02-26T07:07:17;10.63;;;9.63;;
13981;SDS011;7065;50.880;5.502;2024-02-26T07:09:43;10.50;;;9.52;;
13981;SDS011;7065;50.880;5.502;2024-02-26T07:12:09;11.07;;;10.02;;
13981;SDS011;7065;50.880;5.502;2024-02-26T07:14:35;10.43;;;9.38;;
13981;SDS011;7065;50.880;5.502;2024-02-26T07:17:02;11.15;;;9.75;;
13981;SDS011;7065;50.880;5.502;2024-02-26T07:19:28;10.50;;;9.50;;
13981;SDS011;7065;50.880;5.502;2024-02-26T07:21:54;11.38;;;10.23;;
13981;SDS011;7065;50.880;5.502;2024-02-26T07:24:22;11.40;;;10.30;;
13981;SDS011;7065;50.880;5.502;2024-02-26T07:26:51;13.10;;;11.30;;
13981;SDS011;7065;50.880;5.502;2024-02-26T07:29:16;12.60;;;11.32;;
13981;SDS011;7065;50.880;5.502;2024-02-26T07:31:42;13.15;;;11.95;;
13981;SDS011;7065;50.880;5.502;2024-02-26T07:34:08;12.82;;;11.45;;
13981;SDS011;7065;50.880;5.502;2024-02-26T07:36:33;14.30;;;11.95;;
13981;SDS011;7065;50.880;5.502;2024-02-26T07:38:59;13.48;;;12.15;;
13981;SDS011;7065;50.880;5.502;2024-02-26T07:41:26;13.85;;;12.35;;
13981;SDS011;7065;50.880;5.502;2024-02-26T07:43:52;14.23;;;12.73;;
13981;SDS011;7065;50.880;5.502;2024-02-26T07:46:17;14.90;;;13.15;;
13981;SDS011;7065;50.880;5.502;2024-02-26T07:48:43;15.48;;;13.68;;
13981;SDS011;7065;50.880;5.502;2024-02-26T07:51:11;15.50;;;13.77;;
13981;SDS011;7065;50.880;5.502;2024-02-26T07:53:38;14.85;;;13.32;;
13981;SDS011;7065;50.880;5.502;2024-02-26T07:56:04;14.70;;;13.30;;
13981;SDS011;7065;50.880;5.502;2024-02-26T07:58:30;15.00;;;13.40;;
13981;SDS011;7065;50.880;5.502;2024-02-26T08:00:57;15.25;;;12.98;;
13981;SDS011;7065;50.880;5.502;2024-02-26T08:03:22;14.25;;;12.85;;
13981;SDS011;7065;50.880;5.502;2024-02-26T08:05:49;13.65;;;12.23;;
13981;SDS011;7065;50.880;5.502;2024-02-26T08:08:15;15.57;;;13.88;;
13981;SDS011;7065;50.880;5.502;2024-02-26T08:10:41;14.70;;;13.20;;
13981;SDS011;7065;50.880;5.502;2024-02-26T08:13:09;13.65;;;12.25;;
13981;SDS011;7065;50.880;5.502;2024-02-26T08:15:35;14.65;;;13.15;;
13981;SDS011;7065;50.880;5.502;2024-02-26T08:18:02;15.50;;;13.13;;
13981;SDS011;7065;50.880;5.502;2024-02-26T08:20:29;15.93;;;14.25;;
13981;SDS011;7065;50.880;5.502;2024-02-26T08:22:55;16.73;;;15.02;;
13981;SDS011;7065;50.880;5.502;2024-02-26T08:25:22;15.50;;;13.90;;
13981;SDS011;7065;50.880;5.502;2024-02-26T08:27:48;16.75;;;14.35;;
13981;SDS011;7065;50.880;5.502;2024-02-26T08:30:14;16.50;;;14.80;;
13981;SDS011;7065;50.880;5.502;2024-02-26T08:32:44;15.23;;;13.63;;
13981;SDS011;7065;50.880;5.502;2024-02-26T08:35:12;15.93;;;14.23;;
13981;SDS011;7065;50.880;5.502;2024-02-26T08:37:38;16.58;;;14.88;;
13981;SDS011;7065;50.880;5.502;2024-02-26T08:40:04;15.25;;;13.75;;
13981;SDS011;7065;50.880;5.502;2024-02-26T08:42:31;16.65;;;14.95;;
13981;SDS011;7065;50.880;5.502;2024-02-26T08:44:57;15.98;;;14.27;;
13981;SDS011;7065;50.880;5.502;2024-02-26T08:47:25;15.07;;;13.57;;
13981;SDS011;7065;50.880;5.502;2024-02-26T08:49:51;15.80;;;14.20;;
13981;SDS011;7065;50.880;5.502;2024-02-26T08:52:18;16.85;;;15.25;;
13981;SDS011;7065;50.880;5.502;2024-02-26T08:54:43;16.60;;;14.55;;
13981;SDS011;7065;50.880;5.502;2024-02-26T08:57:09;17.10;;;15.35;;
13981;SDS011;7065;50.880;5.502;2024-02-26T08:59:35;16.27;;;14.65;;
13981;SDS011;7065;50.880;5.502;2024-02-26T09:02:00;16.75;;;14.30;;
13981;SDS011;7065;50.880;5.502;2024-02-26T09:04:26;17.52;;;15.68;;
13981;SDS011;7065;50.880;5.502;2024-02-26T09:06:52;16.38;;;14.70;;
13981;SDS011;7065;50.880;5.502;2024-02-26T09:09:18;16.50;;;14.45;;
13981;SDS011;7065;50.880;5.502;2024-02-26T09:11:45;17.08;;;15.20;;
13981;SDS011;7065;50.880;5.502;2024-02-26T09:14:11;16.48;;;14.88;;
13981;SDS011;7065;50.880;5.502;2024-02-26T09:16:37;16.42;;;14.80;;
13981;SDS011;7065;50.880;5.502;2024-02-26T09:19:02;16.98;;;14.98;;
13981;SDS011;7065;50.880;5.502;2024-02-26T09:21:28;16.17;;;13.95;;
13981;SDS011;7065;50.880;5.502;2024-02-26T09:23:54;15.57;;;13.98;;
13981;SDS011;7065;50.880;5.502;2024-02-26T09:26:20;15.80;;;14.15;;
13981;SDS011;7065;50.880;5.502;2024-02-26T09:28:46;13.10;;;11.30;;
13981;SDS011;7065;50.880;5.502;2024-02-26T09:31:12;14.15;;;12.75;;
13981;SDS011;7065;50.880;5.502;2024-02-26T09:33:40;14.20;;;12.88;;
13981;SDS011;7065;50.880;5.502;2024-02-26T09:36:06;13.48;;;12.07;;
13981;SDS011;7065;50.880;5.502;2024-02-26T09:38:32;14.75;;;13.32;;
13981;SDS011;7065;50.880;5.502;2024-02-26T09:41:02;14.88;;;13.32;;
13981;SDS011;7065;50.880;5.502;2024-02-26T09:43:28;13.35;;;11.80;;
13981;SDS011;7065;50.880;5.502;2024-02-26T09:46:01;13.48;;;12.18;;
13981;SDS011;7065;50.880;5.502;2024-02-26T09:48:27;12.60;;;11.38;;
13981;SDS011;7065;50.880;5.502;2024-02-26T09:50:54;12.45;;;10.95;;
13981;SDS011;7065;50.880;5.502;2024-02-26T09:53:20;11.45;;;10.02;;
13981;SDS011;7065;50.880;5.502;2024-02-26T09:55:47;11.32;;;10.30;;
13981;SDS011;7065;50.880;5.502;2024-02-26T09:58:13;10.27;;;9.23;;
13981;SDS011;7065;50.880;5.502;2024-02-26T10:00:43;10.52;;;9.45;;
13981;SDS011;7065;50.880;5.502;2024-02-26T10:03:15;9.85;;;8.68;;
13981;SDS011;7065;50.880;5.502;2024-02-26T10:05:42;10.32;;;8.25;;
13981;SDS011;7065;50.880;5.502;2024-02-26T10:08:09;9.07;;;8.18;;
13981;SDS011;7065;50.880;5.502;2024-02-26T10:10:37;8.63;;;7.47;;
13981;SDS011;7065;50.880;5.502;2024-02-26T10:13:04;8.43;;;7.40;;
13981;SDS011;7065;50.880;5.502;2024-02-26T10:15:35;8.98;;;8.18;;
13981;SDS011;7065;50.880;5.502;2024-02-26T10:18:03;7.03;;;6.32;;
13981;SDS011;7065;50.880;5.502;2024-02-26T10:20:30;7.15;;;6.45;;
13981;SDS011;7065;50.880;5.502;2024-02-26T10:22:56;7.50;;;6.65;;
13981;SDS011;7065;50.880;5.502;2024-02-26T10:25:22;8.35;;;6.43;;
13981;SDS011;7065;50.880;5.502;2024-02-26T10:27:48;7.10;;;6.40;;
13981;SDS011;7065;50.880;5.502;2024-02-26T10:32:47;8.45;;;6.60;;
13981;SDS011;7065;50.880;5.502;2024-02-26T10:35:14;7.20;;;5.93;;
13981;SDS011;7065;50.880;5.502;2024-02-26T10:37:41;8.30;;;7.10;;
13981;SDS011;7065;50.880;5.502;2024-02-26T10:40:13;8.48;;;7.05;;
13981;SDS011;7065;50.880;5.502;2024-02-26T10:42:40;7.53;;;6.82;;
13981;SDS011;7065;50.880;5.502;2024-02-26T10:45:06;7.65;;;6.93;;
13981;SDS011;7065;50.880;5.502;2024-02-26T10:47:34;7.85;;;6.30;;
13981;SDS011;7065;50.880;5.502;2024-02-26T10:50:03;7.60;;;6.80;;
13981;SDS011;7065;50.880;5.502;2024-02-26T10:52:31;8.55;;;7.65;;
13981;SDS011;7065;50.880;5.502;2024-02-26T10:55:03;7.78;;;6.97;;
13981;SDS011;7065;50.880;5.502;2024-02-26T10:57:33;7.90;;;7.10;;
13981;SDS011;7065;50.880;5.502;2024-02-26T11:00:02;6.72;;;6.03;;
13981;SDS011;7065;50.880;5.502;2024-02-26T11:02:33;6.80;;;6.10;;
13981;SDS011;7065;50.880;5.502;2024-02-26T11:05:03;6.25;;;5.65;;
13981;SDS011;7065;50.880;5.502;2024-02-26T11:07:30;6.30;;;5.70;;
13981;SDS011;7065;50.880;5.502;2024-02-26T11:09:57;6.07;;;5.25;;
13981;SDS011;7065;50.880;5.502;2024-02-26T11:12:31;5.75;;;5.18;;
13981;SDS011;7065;50.880;5.502;2024-02-26T11:14:58;6.72;;;5.65;;
13981;SDS011;7065;50.880;5.502;2024-02-26T11:17:27;6.53;;;5.88;;
13981;SDS011;7065;50.880;5.502;2024-02-26T11:19:56;6.68;;;6.07;;
13981;SDS011;7065;50.880;5.502;2024-02-26T11:22:23;6.70;;;6.07;;
13981;SDS011;7065;50.880;5.502;2024-02-26T11:24:51;6.03;;;5.43;;
13981;SDS011;7065;50.880;5.502;2024-02-26T11:27:27;7.93;;;6.10;;
13981;SDS011;7065;50.880;5.502;2024-02-26T11:29:58;6.13;;;5.63;;
13981;SDS011;7065;50.880;5.502;2024-02-26T11:32:27;6.93;;;6.00;;
13981;SDS011;7065;50.880;5.502;2024-02-26T11:34:55;5.85;;;5.25;;
13981;SDS011;7065;50.880;5.502;2024-02-26T11:37:21;6.25;;;5.65;;
13981;SDS011;7065;50.880;5.502;2024-02-26T11:39:48;5.55;;;5.03;;
13981;SDS011;7065;50.880;5.502;2024-02-26T11:42:16;5.57;;;4.57;;
13981;SDS011;7065;50.880;5.502;2024-02-26T11:44:43;5.50;;;5.00;;
13981;SDS011;7065;50.880;5.502;2024-02-26T11:47:12;5.75;;;5.22;;
13981;SDS011;7065;50.880;5.502;2024-02-26T11:49:39;5.40;;;4.90;;
13981;SDS011;7065;50.880;5.502;2024-02-26T11:52:06;7.40;;;5.35;;
13981;SDS011;7065;50.880;5.502;2024-02-26T12:02:38;6.95;;;4.70;;
13981;SDS011;7065;50.880;5.502;2024-02-26T12:05:06;5.43;;;4.93;;
13981;SDS011;7065;50.880;5.502;2024-02-26T12:07:34;5.95;;;4.47;;
13981;SDS011;7065;50.880;5.502;2024-02-26T12:13:15;5.55;;;4.80;;
13981;SDS011;7065;50.880;5.502;2024-02-26T12:15:42;4.93;;;4.40;;
13981;SDS011;7065;50.880;5.502;2024-02-26T12:18:22;5.78;;;4.45;;
13981;SDS011;7065;50.880;5.502;2024-02-26T12:21:00;5.30;;;4.80;;
13981;SDS011;7065;50.880;5.502;2024-02-26T12:23:27;4.15;;;3.85;;
13981;SDS011;7065;50.880;5.502;2024-02-26T12:25:53;4.80;;;3.47;;
13981;SDS011;7065;50.880;5.502;2024-02-26T12:28:23;3.60;;;3.30;;
13981;SDS011;7065;50.880;5.502;2024-02-26T12:30:52;3.78;;;3.38;;
13981;SDS011;7065;50.880;5.502;2024-02-26T12:33:18;3.78;;;3.30;;
13981;SDS011;7065;50.880;5.502;2024-02-26T12:35:44;3.67;;;3.38;;
13981;SDS011;7065;50.880;5.502;2024-02-26T12:38:12;3.78;;;3.22;;
13981;SDS011;7065;50.880;5.502;2024-02-26T12:40:40;3.97;;;3.63;;
13981;SDS011;7065;50.880;5.502;2024-02-26T12:43:06;3.25;;;3.00;;
13981;SDS011;7065;50.880;5.502;2024-02-26T12:45:38;4.97;;;4.47;;
13981;SDS011;7065;50.880;5.502;2024-02-26T12:48:05;4.90;;;4.40;;
13981;SDS011;7065;50.880;5.502;2024-02-26T12:50:31;4.75;;;4.35;;
13981;SDS011;7065;50.880;5.502;2024-02-26T12:52:57;5.68;;;5.18;;
13981;SDS011;7065;50.880;5.502;2024-02-26T12:55:23;7.20;;;6.35;;
13981;SDS011;7065;50.880;5.502;2024-02-26T12:57:50;7.97;;;7.28;;
13981;SDS011;7065;50.880;5.502;2024-02-26T13:00:18;8.38;;;7.53;;
13981;SDS011;7065;50.880;5.502;2024-02-26T13:02:48;8.77;;;7.90;;
13981;SDS011;7065;50.880;5.502;2024-02-26T13:05:15;8.13;;;7.38;;
13981;SDS011;7065;50.880;5.502;2024-02-26T13:07:44;8.40;;;7.70;;
13981;SDS011;7065;50.880;5.502;2024-02-26T13:10:14;8.75;;;7.95;;
13981;SDS011;7065;50.880;5.502;2024-02-26T13:12:43;9.13;;;8.27;;
13981;SDS011;7065;50.880;5.502;2024-02-26T13:15:13;9.13;;;8.32;;
13981;SDS011;7065;50.880;5.502;2024-02-26T13:17:40;9.57;;;8.77;;
13981;SDS011;7065;50.880;5.502;2024-02-26T13:20:07;9.80;;;9.00;;
13981;SDS011;7065;50.880;5.502;2024-02-26T13:22:37;9.43;;;8.63;;
13981;SDS011;7065;50.880;5.502;2024-02-26T13:25:03;10.77;;;9.80;;
13981;SDS011;7065;50.880;5.502;2024-02-26T13:27:30;10.02;;;9.13;;
13981;SDS011;7065;50.880;5.502;2024-02-26T13:30:11;10.80;;;9.80;;
13981;SDS011;7065;50.880;5.502;2024-02-26T13:32:38;10.93;;;9.95;;
13981;SDS011;7065;50.880;5.502;2024-02-26T13:35:05;11.25;;;10.10;;
13981;SDS011;7065;50.880;5.502;2024-02-26T13:37:32;11.02;;;9.90;;
13981;SDS011;7065;50.880;5.502;2024-02-26T13:39:58;12.02;;;11.02;;
13981;SDS011;7065;50.880;5.502;2024-02-26T13:42:24;12.13;;;10.93;;
13981;SDS011;7065;50.880;5.502;2024-02-26T13:44:50;11.55;;;10.38;;
13981;SDS011;7065;50.880;5.502;2024-02-26T13:47:16;12.93;;;11.73;;
13981;SDS011;7065;50.880;5.502;2024-02-26T13:49:44;13.05;;;11.85;;
13981;SDS011;7065;50.880;5.502;2024-02-26T13:52:10;13.73;;;12.43;;
13981;SDS011;7065;50.880;5.502;2024-02-26T13:54:36;14.27;;;12.88;;
13981;SDS011;7065;50.880;5.502;2024-02-26T13:57:03;14.40;;;13.07;;
13981;SDS011;7065;50.880;5.502;2024-02-26T13:59:29;15.20;;;13.80;;
13981;SDS011;7065;50.880;5.502;2024-02-26T14:01:55;14.77;;;13.38;;
13981;SDS011;7065;50.880;5.502;2024-02-26T14:04:20;14.98;;;13.57;;
13981;SDS011;7065;50.880;5.502;2024-02-26T14:06:46;15.02;;;13.73;;
13981;SDS011;7065;50.880;5.502;2024-02-26T14:09:12;16.70;;;14.98;;
13981;SDS011;7065;50.880;5.502;2024-02-26T14:11:43;16.10;;;14.60;;
13981;SDS011;7065;50.880;5.502;2024-02-26T14:14:13;15.88;;;14.38;;
13981;SDS011;7065;50.880;5.502;2024-02-26T14:16:38;15.27;;;13.77;;
13981;SDS011;7065;50.880;5.502;2024-02-26T14:19:04;14.88;;;13.15;;
13981;SDS011;7065;50.880;5.502;2024-02-26T14:21:30;17.63;;;14.35;;
13981;SDS011;7065;50.880;5.502;2024-02-26T14:23:55;16.63;;;14.60;;
13981;SDS011;7065;50.880;5.502;2024-02-26T14:26:24;17.83;;;14.55;;
13981;SDS011;7065;50.880;5.502;2024-02-26T14:28:50;18.08;;;15.68;;
13981;SDS011;7065;50.880;5.502;2024-02-26T14:31:19;19.48;;;15.50;;
13981;SDS011;7065;50.880;5.502;2024-02-26T14:33:44;18.52;;;15.90;;
13981;SDS011;7065;50.880;5.502;2024-02-26T14:36:10;19.08;;;17.13;;
13981;SDS011;7065;50.880;5.502;2024-02-26T14:38:36;18.45;;;16.58;;
13981;SDS011;7065;50.880;5.502;2024-02-26T14:41:03;18.23;;;16.33;;
13981;SDS011;7065;50.880;5.502;2024-02-26T14:43:29;18.13;;;16.27;;
13981;SDS011;7065;50.880;5.502;2024-02-26T14:45:57;18.70;;;16.65;;
13981;SDS011;7065;50.880;5.502;2024-02-26T14:48:24;18.08;;;16.15;;
13981;SDS011;7065;50.880;5.502;2024-02-26T14:50:50;18.30;;;16.17;;
13981;SDS011;7065;50.880;5.502;2024-02-26T14:53:16;19.90;;;17.15;;
13981;SDS011;7065;50.880;5.502;2024-02-26T14:55:42;19.92;;;16.85;;
13981;SDS011;7065;50.880;5.502;2024-02-26T14:58:08;18.88;;;16.88;;
13981;SDS011;7065;50.880;5.502;2024-02-26T15:00:36;19.63;;;17.52;;
13981;SDS011;7065;50.880;5.502;2024-02-26T15:03:05;21.50;;;18.20;;